This is the latest recevied weather packets stored in our database for station/object JI6QOV-13. If no packets are shown the sender has not sent any weather packets the latest 10 day(s).
| Time | Temp. | Humidity | Pressure | Rain* | Wind** | Luminosity | Snow |
|---|---|---|---|---|---|---|---|
| 1778047641 | 25° C | 15% | 1001 hPa | 0 mm | - | - | - |
| 1778046440 | 25.56° C | 15% | 1000 hPa | 0 mm | - | - | - |
| 1778045242 | 25° C | 15% | 1000 hPa | 0 mm | - | - | - |
| 1778044040 | 24.44° C | 15% | 1001 hPa | 0 mm | - | - | - |
| 1778042841 | 24.44° C | 15% | 1001 hPa | 0 mm | - | - | - |
| 1778041641 | 25° C | 15% | 1001 hPa | 0 mm | - | - | - |
| 1777754836 | 16.67° C | 35% | 993 hPa | 0 mm | - | - | - |
| 1777753635 | 16.67° C | 34% | 993 hPa | 0 mm | - | - | - |
| 1777751236 | 16.67° C | 33% | 994 hPa | 0 mm | - | - | - |
| 1777747636 | 16.67° C | 32% | 994 hPa | 0 mm | - | - | - |
| 1777746435 | 16.67° C | 33% | 993 hPa | 0 mm | - | - | - |
| 1777744036 | 16.67° C | 31% | 995 hPa | 0 mm | - | - | - |
| 1777741636 | 17.78° C | 24% | 995 hPa | 0 mm | - | - | - |
| 1777740435 | 17.78° C | 24% | 996 hPa | 0 mm | - | - | - |
| 1777736836 | 18.33° C | 23% | 995 hPa | 0 mm | - | - | - |
| 1777735634 | 18.33° C | 23% | 996 hPa | 0 mm | - | - | - |
| 1777734435 | 18.33° C | 23% | 996 hPa | 0 mm | - | - | - |
| 1777733237 | 18.33° C | 23% | 996 hPa | 0 mm | - | - | - |
| 1777732034 | 18.89° C | 23% | 996 hPa | 0 mm | - | - | - |
| 1777730836 | 18.89° C | 23% | 996 hPa | 0 mm | - | - | - |
| 1777729635 | 18.89° C | 24% | 997 hPa | 0 mm | - | - | - |
| 1777728435 | 18.33° C | 24% | 997 hPa | 0 mm | - | - | - |
| 1777727235 | 17.78° C | 24% | 997 hPa | 0 mm | - | - | - |
| 1777726036 | 17.78° C | 24% | 997 hPa | 0 mm | - | - | - |
| 1777724834 | 17.78° C | 24% | 997 hPa | 0 mm | - | - | - |
* Rain latest hour (hover to see other rain measurements)
** Current wind speed in m/s (hover to see current wind gust speed)